sensor_id;sensor_type;location;lat;lon;timestamp;pressure;altitude;pressure_sealevel;temperature;humidity
25420;BME280;13354;48.174;11.566;2022-09-03T00:01:13;95464.94;;;16.58;58.76
25420;BME280;13354;48.174;11.566;2022-09-03T00:03:44;95471.81;;;16.54;58.84
25420;BME280;13354;48.174;11.566;2022-09-03T00:06:21;95463.06;;;16.58;58.95
25420;BME280;13354;48.174;11.566;2022-09-03T00:08:50;95464.47;;;16.61;59.44
25420;BME280;13354;48.174;11.566;2022-09-03T00:11:18;95468.31;;;16.65;59.47
25420;BME280;13354;48.174;11.566;2022-09-03T00:16:16;95473.06;;;16.63;60.00
25420;BME280;13354;48.174;11.566;2022-09-03T00:18:46;95471.78;;;16.65;59.95
25420;BME280;13354;48.174;11.566;2022-09-03T00:21:20;95463.97;;;16.64;59.49
25420;BME280;13354;48.174;11.566;2022-09-03T00:23:48;95475.84;;;16.68;58.99
25420;BME280;13354;48.174;11.566;2022-09-03T00:26:19;95476.88;;;16.67;58.61
25420;BME280;13354;48.174;11.566;2022-09-03T00:28:49;95471.06;;;16.70;58.21
25420;BME280;13354;48.174;11.566;2022-09-03T00:31:17;95465.03;;;16.75;57.94
25420;BME280;13354;48.174;11.566;2022-09-03T00:33:47;95459.34;;;16.83;57.41
25420;BME280;13354;48.174;11.566;2022-09-03T00:38:41;95463.50;;;16.67;58.45
25420;BME280;13354;48.174;11.566;2022-09-03T00:41:18;95462.63;;;16.61;58.91
25420;BME280;13354;48.174;11.566;2022-09-03T00:43:56;95458.31;;;16.49;59.83
25420;BME280;13354;48.174;11.566;2022-09-03T00:49:06;95447.97;;;16.52;59.32
25420;BME280;13354;48.174;11.566;2022-09-03T00:51:37;95449.94;;;16.57;59.03
25420;BME280;13354;48.174;11.566;2022-09-03T01:02:14;95462.63;;;16.50;59.08
25420;BME280;13354;48.174;11.566;2022-09-03T01:09:55;95465.28;;;16.26;60.80
25420;BME280;13354;48.174;11.566;2022-09-03T01:12:31;95468.22;;;16.25;60.80
25420;BME280;13354;48.174;11.566;2022-09-03T01:25:46;95453.22;;;16.24;61.26
25420;BME280;13354;48.174;11.566;2022-09-03T01:28:22;95453.22;;;16.24;61.32
25420;BME280;13354;48.174;11.566;2022-09-03T01:30:56;95463.34;;;16.10;61.83
25420;BME280;13354;48.174;11.566;2022-09-03T01:33:32;95456.69;;;16.01;62.21
25420;BME280;13354;48.174;11.566;2022-09-03T01:36:11;95458.56;;;16.00;62.14
25420;BME280;13354;48.174;11.566;2022-09-03T01:44:31;95460.16;;;16.01;61.51
25420;BME280;13354;48.174;11.566;2022-09-03T01:47:09;95461.47;;;15.99;61.61
25420;BME280;13354;48.174;11.566;2022-09-03T01:49:39;95459.72;;;16.04;61.39
25420;BME280;13354;48.174;11.566;2022-09-03T01:54:37;95452.16;;;15.89;62.18
25420;BME280;13354;48.174;11.566;2022-09-03T01:57:17;95458.44;;;15.83;62.28
25420;BME280;13354;48.174;11.566;2022-09-03T02:00:00;95455.06;;;15.88;62.33
25420;BME280;13354;48.174;11.566;2022-09-03T02:02:28;95448.69;;;15.89;62.34
25420;BME280;13354;48.174;11.566;2022-09-03T02:05:03;95451.91;;;15.79;62.51
25420;BME280;13354;48.174;11.566;2022-09-03T02:07:38;95452.03;;;15.73;62.85
25420;BME280;13354;48.174;11.566;2022-09-03T02:10:04;95445.75;;;15.67;63.88
25420;BME280;13354;48.174;11.566;2022-09-03T02:12:30;95442.06;;;15.80;63.06
25420;BME280;13354;48.174;11.566;2022-09-03T02:14:58;95431.59;;;15.90;62.59
25420;BME280;13354;48.174;11.566;2022-09-03T02:17:24;95433.00;;;15.69;63.11
25420;BME280;13354;48.174;11.566;2022-09-03T02:19:49;95431.22;;;15.63;63.20
25420;BME280;13354;48.174;11.566;2022-09-03T02:22:15;95432.00;;;15.63;63.21
25420;BME280;13354;48.174;11.566;2022-09-03T02:24:41;95435.03;;;15.55;63.69
25420;BME280;13354;48.174;11.566;2022-09-03T02:27:06;95443.72;;;15.51;64.00
25420;BME280;13354;48.174;11.566;2022-09-03T02:29:31;95441.16;;;15.56;64.13
25420;BME280;13354;48.174;11.566;2022-09-03T02:31:57;95450.31;;;15.48;64.57
25420;BME280;13354;48.174;11.566;2022-09-03T02:34:22;95453.63;;;15.32;65.39
25420;BME280;13354;48.174;11.566;2022-09-03T02:36:47;95451.78;;;15.32;65.50
25420;BME280;13354;48.174;11.566;2022-09-03T02:39:13;95458.72;;;15.33;65.55
25420;BME280;13354;48.174;11.566;2022-09-03T02:41:39;95450.13;;;15.31;65.88
25420;BME280;13354;48.174;11.566;2022-09-03T02:44:19;95445.03;;;15.30;65.37
25420;BME280;13354;48.174;11.566;2022-09-03T02:46:52;95451.72;;;15.20;65.91
25420;BME280;13354;48.174;11.566;2022-09-03T02:49:18;95455.06;;;15.16;66.22
25420;BME280;13354;48.174;11.566;2022-09-03T02:51:43;95464.56;;;15.12;66.22
25420;BME280;13354;48.174;11.566;2022-09-03T02:54:09;95461.44;;;15.15;66.38
25420;BME280;13354;48.174;11.566;2022-09-03T02:56:35;95456.88;;;15.04;66.73
25420;BME280;13354;48.174;11.566;2022-09-03T02:59:00;95454.41;;;15.02;66.87
25420;BME280;13354;48.174;11.566;2022-09-03T03:01:26;95446.69;;;15.12;66.45
25420;BME280;13354;48.174;11.566;2022-09-03T03:03:51;95443.03;;;15.13;66.58
25420;BME280;13354;48.174;11.566;2022-09-03T03:06:16;95442.50;;;15.05;67.13
25420;BME280;13354;48.174;11.566;2022-09-03T03:08:44;95444.00;;;15.01;67.47
25420;BME280;13354;48.174;11.566;2022-09-03T03:11:10;95443.75;;;15.02;67.51
25420;BME280;13354;48.174;11.566;2022-09-03T03:13:36;95443.19;;;15.00;67.22
25420;BME280;13354;48.174;11.566;2022-09-03T03:16:02;95447.25;;;15.03;67.24
25420;BME280;13354;48.174;11.566;2022-09-03T03:18:27;95439.44;;;14.89;67.85
25420;BME280;13354;48.174;11.566;2022-09-03T03:20:53;95448.22;;;14.90;67.90
25420;BME280;13354;48.174;11.566;2022-09-03T03:23:19;95451.06;;;14.95;67.92
25420;BME280;13354;48.174;11.566;2022-09-03T03:25:44;95450.75;;;15.03;67.34
25420;BME280;13354;48.174;11.566;2022-09-03T03:28:09;95445.03;;;15.00;67.58
25420;BME280;13354;48.174;11.566;2022-09-03T03:30:38;95445.13;;;14.93;67.90
25420;BME280;13354;48.174;11.566;2022-09-03T03:33:04;95449.41;;;14.94;67.82
25420;BME280;13354;48.174;11.566;2022-09-03T03:35:29;95453.19;;;14.86;67.87
25420;BME280;13354;48.174;11.566;2022-09-03T03:37:56;95455.50;;;14.83;68.11
25420;BME280;13354;48.174;11.566;2022-09-03T03:40:21;95457.94;;;14.84;67.94
25420;BME280;13354;48.174;11.566;2022-09-03T03:42:46;95461.56;;;14.71;68.73
25420;BME280;13354;48.174;11.566;2022-09-03T03:45:11;95464.09;;;14.66;69.62
25420;BME280;13354;48.174;11.566;2022-09-03T03:47:37;95467.50;;;14.73;69.09
25420;BME280;13354;48.174;11.566;2022-09-03T03:50:02;95468.25;;;14.62;69.55
25420;BME280;13354;48.174;11.566;2022-09-03T03:52:28;95470.97;;;14.56;69.73
25420;BME280;13354;48.174;11.566;2022-09-03T03:54:53;95463.00;;;14.56;69.85
25420;BME280;13354;48.174;11.566;2022-09-03T03:57:19;95456.63;;;14.57;69.90
25420;BME280;13354;48.174;11.566;2022-09-03T03:59:45;95458.84;;;14.60;69.77
25420;BME280;13354;48.174;11.566;2022-09-03T04:02:10;95449.38;;;14.64;69.56
25420;BME280;13354;48.174;11.566;2022-09-03T04:04:36;95443.59;;;14.67;69.48
25420;BME280;13354;48.174;11.566;2022-09-03T04:07:01;95449.34;;;14.82;69.02
25420;BME280;13354;48.174;11.566;2022-09-03T04:09:26;95449.22;;;14.77;69.19
25420;BME280;13354;48.174;11.566;2022-09-03T04:11:51;95444.16;;;14.87;68.77
25420;BME280;13354;48.174;11.566;2022-09-03T04:14:16;95445.34;;;14.91;68.20
25420;BME280;13354;48.174;11.566;2022-09-03T04:16:42;95442.44;;;14.93;68.33
25420;BME280;13354;48.174;11.566;2022-09-03T04:19:10;95448.16;;;14.96;68.16
25420;BME280;13354;48.174;11.566;2022-09-03T04:21:36;95456.09;;;14.85;68.47
25420;BME280;13354;48.174;11.566;2022-09-03T04:24:02;95450.59;;;14.80;69.15
25420;BME280;13354;48.174;11.566;2022-09-03T04:26:29;95454.09;;;14.80;69.17
25420;BME280;13354;48.174;11.566;2022-09-03T04:28:55;95459.28;;;14.75;69.24
25420;BME280;13354;48.174;11.566;2022-09-03T04:31:20;95463.19;;;14.72;69.58
25420;BME280;13354;48.174;11.566;2022-09-03T04:33:46;95468.53;;;14.72;69.78
25420;BME280;13354;48.174;11.566;2022-09-03T04:36:16;95461.06;;;14.81;69.55
25420;BME280;13354;48.174;11.566;2022-09-03T04:38:42;95471.13;;;14.79;69.49
25420;BME280;13354;48.174;11.566;2022-09-03T04:41:09;95475.63;;;14.79;69.48
25420;BME280;13354;48.174;11.566;2022-09-03T04:43:35;95476.59;;;14.84;69.56
25420;BME280;13354;48.174;11.566;2022-09-03T04:46:01;95473.72;;;14.86;69.63
25420;BME280;13354;48.174;11.566;2022-09-03T04:48:27;95483.25;;;14.75;70.57
25420;BME280;13354;48.174;11.566;2022-09-03T04:50:53;95477.84;;;14.82;70.34
25420;BME280;13354;48.174;11.566;2022-09-03T04:53:19;95471.34;;;14.78;69.96
25420;BME280;13354;48.174;11.566;2022-09-03T04:55:44;95474.44;;;14.74;70.54
25420;BME280;13354;48.174;11.566;2022-09-03T04:58:09;95478.16;;;14.73;70.80
25420;BME280;13354;48.174;11.566;2022-09-03T05:00:35;95481.63;;;14.74;71.30
25420;BME280;13354;48.174;11.566;2022-09-03T05:03:00;95493.72;;;14.77;71.21
25420;BME280;13354;48.174;11.566;2022-09-03T05:05:26;95499.84;;;14.77;71.29
25420;BME280;13354;48.174;11.566;2022-09-03T05:07:51;95492.88;;;14.94;70.39
25420;BME280;13354;48.174;11.566;2022-09-03T05:10:17;95489.69;;;15.04;69.32
25420;BME280;13354;48.174;11.566;2022-09-03T05:12:46;95488.34;;;15.13;68.99
25420;BME280;13354;48.174;11.566;2022-09-03T05:15:12;95497.97;;;15.14;69.64
25420;BME280;13354;48.174;11.566;2022-09-03T05:17:37;95485.56;;;15.20;69.51
25420;BME280;13354;48.174;11.566;2022-09-03T05:20:03;95491.63;;;15.27;68.92
25420;BME280;13354;48.174;11.566;2022-09-03T05:22:28;95495.34;;;15.26;69.64
25420;BME280;13354;48.174;11.566;2022-09-03T05:24:53;95494.25;;;15.45;69.09
25420;BME280;13354;48.174;11.566;2022-09-03T05:27:20;95501.31;;;15.40;67.63
25420;BME280;13354;48.174;11.566;2022-09-03T05:29:45;95513.50;;;15.36;67.82
25420;BME280;13354;48.174;11.566;2022-09-03T05:32:11;95514.31;;;15.36;68.17
25420;BME280;13354;48.174;11.566;2022-09-03T05:34:41;95534.72;;;15.42;67.64
25420;BME280;13354;48.174;11.566;2022-09-03T05:37:06;95535.50;;;15.80;66.46
25420;BME280;13354;48.174;11.566;2022-09-03T05:39:31;95534.59;;;15.98;66.24
25420;BME280;13354;48.174;11.566;2022-09-03T05:41:57;95533.03;;;16.20;65.51
25420;BME280;13354;48.174;11.566;2022-09-03T05:44:22;95528.56;;;16.02;65.68
25420;BME280;13354;48.174;11.566;2022-09-03T05:46:47;95523.09;;;16.09;65.62
25420;BME280;13354;48.174;11.566;2022-09-03T05:49:13;95521.03;;;15.99;66.16
25420;BME280;13354;48.174;11.566;2022-09-03T05:51:38;95526.22;;;15.94;66.02
25420;BME280;13354;48.174;11.566;2022-09-03T05:54:04;95527.53;;;16.03;65.90
25420;BME280;13354;48.174;11.566;2022-09-03T05:56:30;95537.06;;;16.11;65.98
25420;BME280;13354;48.174;11.566;2022-09-03T05:58:56;95530.53;;;16.07;66.24
25420;BME280;13354;48.174;11.566;2022-09-03T06:01:25;95527.69;;;16.20;65.44
25420;BME280;13354;48.174;11.566;2022-09-03T06:06:44;95533.94;;;16.26;66.36
25420;BME280;13354;48.174;11.566;2022-09-03T06:09:11;95524.66;;;16.40;65.48
25420;BME280;13354;48.174;11.566;2022-09-03T06:11:38;95536.50;;;16.56;64.95
25420;BME280;13354;48.174;11.566;2022-09-03T06:14:05;95535.25;;;16.47;65.15
25420;BME280;13354;48.174;11.566;2022-09-03T06:16:32;95528.50;;;16.44;65.88
25420;BME280;13354;48.174;11.566;2022-09-03T06:18:58;95528.28;;;16.57;66.02
25420;BME280;13354;48.174;11.566;2022-09-03T06:21:23;95533.81;;;16.67;66.25
25420;BME280;13354;48.174;11.566;2022-09-03T06:23:52;95536.63;;;16.73;65.76
25420;BME280;13354;48.174;11.566;2022-09-03T06:26:20;95540.13;;;16.61;66.06
25420;BME280;13354;48.174;11.566;2022-09-03T06:28:46;95537.19;;;16.63;66.49
25420;BME280;13354;48.174;11.566;2022-09-03T06:31:13;95540.47;;;16.65;64.90
25420;BME280;13354;48.174;11.566;2022-09-03T06:33:38;95536.41;;;16.74;65.01
25420;BME280;13354;48.174;11.566;2022-09-03T06:36:05;95535.69;;;16.79;65.78
25420;BME280;13354;48.174;11.566;2022-09-03T06:38:31;95536.84;;;16.59;67.16
25420;BME280;13354;48.174;11.566;2022-09-03T06:40:58;95541.75;;;16.62;65.49
25420;BME280;13354;48.174;11.566;2022-09-03T06:43:28;95546.97;;;16.69;65.03
25420;BME280;13354;48.174;11.566;2022-09-03T06:45:58;95547.31;;;16.61;64.50
25420;BME280;13354;48.174;11.566;2022-09-03T06:48:24;95552.19;;;16.64;64.69
25420;BME280;13354;48.174;11.566;2022-09-03T06:51:08;95554.84;;;16.52;64.61
25420;BME280;13354;48.174;11.566;2022-09-03T06:53:34;95562.88;;;16.52;65.58
25420;BME280;13354;48.174;11.566;2022-09-03T06:56:02;95569.16;;;16.58;65.40
25420;BME280;13354;48.174;11.566;2022-09-03T06:58:28;95570.53;;;16.60;65.75
25420;BME280;13354;48.174;11.566;2022-09-03T07:00:59;95566.75;;;16.68;65.39
25420;BME280;13354;48.174;11.566;2022-09-03T07:03:24;95567.75;;;16.55;66.20
25420;BME280;13354;48.174;11.566;2022-09-03T07:05:49;95573.38;;;16.77;65.43
25420;BME280;13354;48.174;11.566;2022-09-03T07:08:15;95570.69;;;16.77;65.65
25420;BME280;13354;48.174;11.566;2022-09-03T07:10:40;95562.56;;;16.84;65.03
25420;BME280;13354;48.174;11.566;2022-09-03T07:13:10;95567.09;;;16.72;65.40
25420;BME280;13354;48.174;11.566;2022-09-03T07:15:35;95557.69;;;16.81;65.26
25420;BME280;13354;48.174;11.566;2022-09-03T07:18:00;95563.13;;;16.74;65.79
25420;BME280;13354;48.174;11.566;2022-09-03T07:20:26;95559.78;;;16.90;64.70
25420;BME280;13354;48.174;11.566;2022-09-03T07:22:54;95575.47;;;16.99;64.45
25420;BME280;13354;48.174;11.566;2022-09-03T07:25:20;95572.66;;;16.94;64.67
25420;BME280;13354;48.174;11.566;2022-09-03T07:27:46;95570.69;;;16.77;65.85
25420;BME280;13354;48.174;11.566;2022-09-03T07:30:11;95575.09;;;16.72;66.29
25420;BME280;13354;48.174;11.566;2022-09-03T07:32:36;95578.47;;;16.79;65.91
25420;BME280;13354;48.174;11.566;2022-09-03T07:35:04;95582.19;;;16.78;66.71
25420;BME280;13354;48.174;11.566;2022-09-03T07:37:30;95577.78;;;16.72;66.93
25420;BME280;13354;48.174;11.566;2022-09-03T07:39:55;95563.81;;;16.70;67.55
25420;BME280;13354;48.174;11.566;2022-09-03T07:42:20;95577.28;;;16.63;68.63
25420;BME280;13354;48.174;11.566;2022-09-03T07:44:45;95576.38;;;16.69;68.15
25420;BME280;13354;48.174;11.566;2022-09-03T07:47:10;95571.50;;;16.78;67.30
25420;BME280;13354;48.174;11.566;2022-09-03T07:49:37;95571.47;;;16.66;68.11
25420;BME280;13354;48.174;11.566;2022-09-03T07:52:02;95575.78;;;16.67;68.27
25420;BME280;13354;48.174;11.566;2022-09-03T07:54:27;95568.03;;;16.77;68.19
25420;BME280;13354;48.174;11.566;2022-09-03T07:56:53;95571.16;;;16.74;69.09
25420;BME280;13354;48.174;11.566;2022-09-03T07:59:18;95574.66;;;16.86;69.37
25420;BME280;13354;48.174;11.566;2022-09-03T08:01:46;95573.47;;;17.06;68.72
25420;BME280;13354;48.174;11.566;2022-09-03T08:04:12;95581.63;;;16.87;68.99
25420;BME280;13354;48.174;11.566;2022-09-03T08:06:37;95577.88;;;17.00;68.45
25420;BME280;13354;48.174;11.566;2022-09-03T08:09:04;95578.75;;;17.29;67.28
25420;BME280;13354;48.174;11.566;2022-09-03T08:11:30;95575.72;;;17.37;66.88
25420;BME280;13354;48.174;11.566;2022-09-03T08:13:59;95580.25;;;17.37;67.33
25420;BME280;13354;48.174;11.566;2022-09-03T08:16:27;95578.22;;;17.56;66.07
25420;BME280;13354;48.174;11.566;2022-09-03T08:18:53;95582.47;;;17.40;66.31
25420;BME280;13354;48.174;11.566;2022-09-03T08:21:19;95587.09;;;17.45;66.41
25420;BME280;13354;48.174;11.566;2022-09-03T08:23:48;95587.59;;;17.42;66.77
25420;BME280;13354;48.174;11.566;2022-09-03T08:26:14;95587.72;;;17.35;66.82
25420;BME280;13354;48.174;11.566;2022-09-03T08:28:40;95592.28;;;17.34;67.34
25420;BME280;13354;48.174;11.566;2022-09-03T08:31:07;95585.84;;;17.35;67.58
25420;BME280;13354;48.174;11.566;2022-09-03T08:33:39;95594.44;;;17.37;67.91
25420;BME280;13354;48.174;11.566;2022-09-03T08:38:38;95594.44;;;17.37;68.41
25420;BME280;13354;48.174;11.566;2022-09-03T08:46:47;95587.34;;;17.83;66.92
25420;BME280;13354;48.174;11.566;2022-09-03T08:49:16;95593.06;;;17.87;67.58
25420;BME280;13354;48.174;11.566;2022-09-03T08:51:44;95584.69;;;18.00;67.27
25420;BME280;13354;48.174;11.566;2022-09-03T08:54:13;95585.41;;;18.24;67.05
25420;BME280;13354;48.174;11.566;2022-09-03T08:56:39;95578.81;;;18.32;66.95
25420;BME280;13354;48.174;11.566;2022-09-03T08:59:06;95571.34;;;18.85;65.84
25420;BME280;13354;48.174;11.566;2022-09-03T09:14:37;95566.03;;;21.38;59.30
25420;BME280;13354;48.174;11.566;2022-09-03T09:17:24;95568.91;;;21.21;59.51
25420;BME280;13354;48.174;11.566;2022-09-03T09:20:04;95559.31;;;21.41;58.50
25420;BME280;13354;48.174;11.566;2022-09-03T09:22:34;95564.44;;;21.42;58.19
25420;BME280;13354;48.174;11.566;2022-09-03T09:25:03;95557.47;;;21.52;57.74
25420;BME280;13354;48.174;11.566;2022-09-03T09:27:32;95557.22;;;21.53;57.67
25420;BME280;13354;48.174;11.566;2022-09-03T09:29:58;95553.19;;;21.56;57.58
25420;BME280;13354;48.174;11.566;2022-09-03T09:32:25;95556.44;;;21.58;57.26
25420;BME280;13354;48.174;11.566;2022-09-03T09:34:50;95555.09;;;21.60;57.85
25420;BME280;13354;48.174;11.566;2022-09-03T09:37:17;95547.31;;;21.79;57.01
25420;BME280;13354;48.174;11.566;2022-09-03T09:39:53;95554.59;;;21.74;56.37
25420;BME280;13354;48.174;11.566;2022-09-03T09:42:20;95554.84;;;21.72;56.66
25420;BME280;13354;48.174;11.566;2022-09-03T09:44:45;95545.91;;;21.61;57.37
25420;BME280;13354;48.174;11.566;2022-09-03T09:49:37;95539.81;;;22.02;56.29
25420;BME280;13354;48.174;11.566;2022-09-03T09:52:12;95542.56;;;22.22;55.52
25420;BME280;13354;48.174;11.566;2022-09-03T09:54:39;95540.41;;;22.14;57.38
25420;BME280;13354;48.174;11.566;2022-09-03T09:57:05;95542.03;;;22.30;56.88
25420;BME280;13354;48.174;11.566;2022-09-03T09:59:32;95548.53;;;22.65;55.13
25420;BME280;13354;48.174;11.566;2022-09-03T10:04:33;95547.19;;;22.32;56.58
25420;BME280;13354;48.174;11.566;2022-09-03T10:07:03;95537.19;;;22.42;56.39
25420;BME280;13354;48.174;11.566;2022-09-03T10:09:30;95544.75;;;22.51;55.52
25420;BME280;13354;48.174;11.566;2022-09-03T10:22:29;95535.03;;;22.45;55.71
25420;BME280;13354;48.174;11.566;2022-09-03T10:24:59;95538.81;;;22.43;56.24
25420;BME280;13354;48.174;11.566;2022-09-03T10:27:27;95543.66;;;22.41;57.32
25420;BME280;13354;48.174;11.566;2022-09-03T10:29:53;95538.81;;;22.28;57.53
25420;BME280;13354;48.174;11.566;2022-09-03T10:32:26;95535.84;;;22.50;55.51
25420;BME280;13354;48.174;11.566;2022-09-03T10:37:41;95541.44;;;23.10;52.76
25420;BME280;13354;48.174;11.566;2022-09-03T10:47:44;95527.34;;;23.28;52.26
25420;BME280;13354;48.174;11.566;2022-09-03T10:50:21;95527.59;;;23.27;53.16
25420;BME280;13354;48.174;11.566;2022-09-03T10:57:50;95513.31;;;23.86;47.43
25420;BME280;13354;48.174;11.566;2022-09-03T11:00:18;95517.31;;;23.94;49.07
25420;BME280;13354;48.174;11.566;2022-09-03T11:03:06;95503.56;;;24.24;49.21
25420;BME280;13354;48.174;11.566;2022-09-03T11:05:40;95510.50;;;24.70;48.39
25420;BME280;13354;48.174;11.566;2022-09-03T11:10:56;95522.81;;;24.57;48.43
25420;BME280;13354;48.174;11.566;2022-09-03T11:13:31;95515.88;;;24.46;48.18
25420;BME280;13354;48.174;11.566;2022-09-03T11:16:01;95517.97;;;24.54;47.54
25420;BME280;13354;48.174;11.566;2022-09-03T11:20:55;95511.31;;;24.41;48.83
25420;BME280;13354;48.174;11.566;2022-09-03T11:23:25;95501.78;;;24.49;48.77
25420;BME280;13354;48.174;11.566;2022-09-03T11:25:53;95497.28;;;24.34;48.97
25420;BME280;13354;48.174;11.566;2022-09-03T11:33:10;95492.31;;;24.12;50.89
25420;BME280;13354;48.174;11.566;2022-09-03T11:38:02;95493.91;;;24.52;47.02
25420;BME280;13354;48.174;11.566;2022-09-03T11:40:31;95499.09;;;24.49;46.92
25420;BME280;13354;48.174;11.566;2022-09-03T11:43:04;95493.78;;;24.63;48.26
25420;BME280;13354;48.174;11.566;2022-09-03T11:47:55;95495.84;;;25.00;45.46
25420;BME280;13354;48.174;11.566;2022-09-03T11:53:05;95484.00;;;25.63;45.50
25420;BME280;13354;48.174;11.566;2022-09-03T11:55:33;95492.84;;;25.92;45.01
25420;BME280;13354;48.174;11.566;2022-09-03T11:58:12;95475.56;;;26.21;44.66
25420;BME280;13354;48.174;11.566;2022-09-03T12:00:42;95470.88;;;26.26;44.98
25420;BME280;13354;48.174;11.566;2022-09-03T12:03:11;95469.97;;;26.50;44.83
25420;BME280;13354;48.174;11.566;2022-09-03T12:05:48;95461.56;;;26.79;43.56
25420;BME280;13354;48.174;11.566;2022-09-03T12:13:53;95458.75;;;28.03;41.63
25420;BME280;13354;48.174;11.566;2022-09-03T12:16:35;95454.13;;;28.49;41.08
25420;BME280;13354;48.174;11.566;2022-09-03T12:19:05;95457.16;;;28.78;40.50
25420;BME280;13354;48.174;11.566;2022-09-03T12:21:40;95458.78;;;29.10;40.11
25420;BME280;13354;48.174;11.566;2022-09-03T12:24:05;95456.31;;;29.49;39.21
25420;BME280;13354;48.174;11.566;2022-09-03T12:26:38;95463.06;;;29.51;38.90
25420;BME280;13354;48.174;11.566;2022-09-03T12:29:03;95464.75;;;29.70;39.00
25420;BME280;13354;48.174;11.566;2022-09-03T12:31:31;95452.69;;;29.62;38.19
25420;BME280;13354;48.174;11.566;2022-09-03T12:34:01;95457.34;;;29.70;38.27
25420;BME280;13354;48.174;11.566;2022-09-03T12:36:35;95449.81;;;29.76;38.17
25420;BME280;13354;48.174;11.566;2022-09-03T12:41:35;95443.81;;;29.39;39.12
25420;BME280;13354;48.174;11.566;2022-09-03T12:44:01;95447.09;;;29.84;39.77
25420;BME280;13354;48.174;11.566;2022-09-03T12:46:28;95448.53;;;29.99;39.07
25420;BME280;13354;48.174;11.566;2022-09-03T12:48:57;95446.78;;;30.12;39.26
25420;BME280;13354;48.174;11.566;2022-09-03T12:51:30;95445.66;;;30.22;38.57
25420;BME280;13354;48.174;11.566;2022-09-03T12:53:56;95446.44;;;29.96;38.90
25420;BME280;13354;48.174;11.566;2022-09-03T12:56:22;95435.88;;;30.12;38.71
25420;BME280;13354;48.174;11.566;2022-09-03T12:58:55;95437.44;;;30.04;38.65
25420;BME280;13354;48.174;11.566;2022-09-03T13:01:28;95435.84;;;29.77;39.24
25420;BME280;13354;48.174;11.566;2022-09-03T13:06:24;95438.09;;;29.93;37.75
25420;BME280;13354;48.174;11.566;2022-09-03T13:08:57;95426.69;;;29.82;37.66
25420;BME280;13354;48.174;11.566;2022-09-03T13:11:24;95423.97;;;29.65;38.27
25420;BME280;13354;48.174;11.566;2022-09-03T13:22:04;95427.13;;;27.57;40.93
25420;BME280;13354;48.174;11.566;2022-09-03T13:27:26;95432.31;;;26.62;43.40
25420;BME280;13354;48.174;11.566;2022-09-03T13:32:38;95442.16;;;26.72;43.76
25420;BME280;13354;48.174;11.566;2022-09-03T13:35:15;95445.47;;;26.83;42.86
25420;BME280;13354;48.174;11.566;2022-09-03T13:37:46;95449.91;;;27.06;43.85
25420;BME280;13354;48.174;11.566;2022-09-03T13:40:24;95446.09;;;27.07;42.85
25420;BME280;13354;48.174;11.566;2022-09-03T13:43:19;95448.69;;;26.98;43.61
25420;BME280;13354;48.174;11.566;2022-09-03T13:45:43;95443.44;;;26.61;43.83
25420;BME280;13354;48.174;11.566;2022-09-03T13:48:13;95438.84;;;26.42;44.22
25420;BME280;13354;48.174;11.566;2022-09-03T13:51:06;95451.03;;;26.12;45.07
25420;BME280;13354;48.174;11.566;2022-09-03T13:53:39;95446.34;;;25.99;45.39
25420;BME280;13354;48.174;11.566;2022-09-03T13:56:18;95440.22;;;25.93;45.25
25420;BME280;13354;48.174;11.566;2022-09-03T14:01:40;95442.53;;;25.62;45.32
25420;BME280;13354;48.174;11.566;2022-09-03T14:04:14;95445.66;;;25.32;46.18
25420;BME280;13354;48.174;11.566;2022-09-03T14:06:43;95456.50;;;25.08;46.56
25420;BME280;13354;48.174;11.566;2022-09-03T14:09:32;95464.31;;;24.85;48.03
25420;BME280;13354;48.174;11.566;2022-09-03T14:14:44;95462.97;;;24.58;48.82
25420;BME280;13354;48.174;11.566;2022-09-03T14:17:31;95461.44;;;24.52;49.21
25420;BME280;13354;48.174;11.566;2022-09-03T14:20:05;95466.44;;;24.30;50.10
25420;BME280;13354;48.174;11.566;2022-09-03T14:25:19;95478.56;;;24.03;51.21
25420;BME280;13354;48.174;11.566;2022-09-03T14:27:45;95500.84;;;23.90;52.92
25420;BME280;13354;48.174;11.566;2022-09-03T14:30:17;95520.63;;;23.80;56.46
25420;BME280;13354;48.174;11.566;2022-09-03T14:32:51;95540.28;;;23.36;61.39
25420;BME280;13354;48.174;11.566;2022-09-03T14:45:40;95602.22;;;20.14;79.86
25420;BME280;13354;48.174;11.566;2022-09-03T14:50:49;95597.31;;;19.62;80.62
25420;BME280;13354;48.174;11.566;2022-09-03T15:01:01;95608.78;;;19.13;83.20
25420;BME280;13354;48.174;11.566;2022-09-03T15:06:13;95638.66;;;18.83;85.61
25420;BME280;13354;48.174;11.566;2022-09-03T15:08:50;95661.38;;;18.64;86.25
25420;BME280;13354;48.174;11.566;2022-09-03T15:11:22;95654.38;;;18.63;86.79
25420;BME280;13354;48.174;11.566;2022-09-03T15:13:52;95632.38;;;18.77;84.42
25420;BME280;13354;48.174;11.566;2022-09-03T15:24:06;95582.41;;;18.54;90.10
25420;BME280;13354;48.174;11.566;2022-09-03T15:27:21;95572.50;;;18.38;91.40
25420;BME280;13354;48.174;11.566;2022-09-03T15:29:36;95569.41;;;18.29;95.85
25420;BME280;13354;48.174;11.566;2022-09-03T15:37:20;95606.66;;;18.14;87.03
25420;BME280;13354;48.174;11.566;2022-09-03T15:39:47;95618.97;;;17.98;88.01
25420;BME280;13354;48.174;11.566;2022-09-03T15:42:24;95613.34;;;18.00;90.57
25420;BME280;13354;48.174;11.566;2022-09-03T15:44:52;95610.00;;;17.93;90.61
25420;BME280;13354;48.174;11.566;2022-09-03T15:50:05;95611.34;;;17.78;93.54
25420;BME280;13354;48.174;11.566;2022-09-03T15:52:46;95622.56;;;17.75;94.37
25420;BME280;13354;48.174;11.566;2022-09-03T15:57:44;95617.75;;;17.77;90.00
25420;BME280;13354;48.174;11.566;2022-09-03T16:00:12;95612.41;;;17.66;90.45
25420;BME280;13354;48.174;11.566;2022-09-03T16:05:43;95622.06;;;17.78;87.67
25420;BME280;13354;48.174;11.566;2022-09-03T16:18:24;95611.78;;;17.87;86.32